createdAt,value
2023-05-14T00:01:17.963Z,55.25
2023-05-14T00:03:46.777Z,55.83
2023-05-14T00:06:14.266Z,55.01
2023-05-14T00:08:41.709Z,55.17
2023-05-14T00:11:09.888Z,55.58
2023-05-14T00:13:37.634Z,55.59
2023-05-14T00:16:05.478Z,55.56
2023-05-14T00:18:33.547Z,55.95
2023-05-14T00:21:02.336Z,55.69
2023-05-14T00:23:29.847Z,55.17
2023-05-14T00:25:57.281Z,55.24
2023-05-14T00:28:24.683Z,55.48
2023-05-14T00:30:52.614Z,55.92
2023-05-14T00:33:20.038Z,56.62
2023-05-14T00:35:47.525Z,56.63
2023-05-14T00:38:19.317Z,58.47
2023-05-14T00:40:51.257Z,58.98
2023-05-14T00:43:19.234Z,58.34
2023-05-14T00:45:47.129Z,59.60
2023-05-14T00:48:14.859Z,59.91
2023-05-14T00:50:42.817Z,60.18
2023-05-14T00:53:11.443Z,59.99
2023-05-14T00:55:42.765Z,60.21
2023-05-14T00:58:11.967Z,60.13
2023-05-14T01:00:41.164Z,61.37
2023-05-14T01:03:09.566Z,60.83
2023-05-14T01:05:44.841Z,61.10
2023-05-14T01:08:20.120Z,61.21
2023-05-14T01:10:53.487Z,61.15
2023-05-14T01:13:28.317Z,61.03
2023-05-14T01:15:59.291Z,60.39
2023-05-14T01:18:29.474Z,60.07
2023-05-14T01:20:56.908Z,59.98
2023-05-14T01:23:25.745Z,59.65
2023-05-14T01:25:53.173Z,58.35
2023-05-14T01:28:26.210Z,58.82
2023-05-14T01:30:57.843Z,58.47
2023-05-14T01:33:28.537Z,57.50
2023-05-14T01:35:56.627Z,57.67
2023-05-14T01:38:27.558Z,57.91
2023-05-14T01:40:56.134Z,57.39
2023-05-14T01:43:24.126Z,58.09
2023-05-14T01:45:51.635Z,57.59
2023-05-14T01:48:19.096Z,57.91
2023-05-14T01:50:46.518Z,58.15
2023-05-14T01:53:14.059Z,58.59
2023-05-14T01:55:42.781Z,58.86
2023-05-14T01:58:10.236Z,58.76
2023-05-14T02:00:38.258Z,57.84
2023-05-14T02:03:05.950Z,57.88
2023-05-14T02:05:33.410Z,57.25
2023-05-14T02:08:01.099Z,57.72
2023-05-14T02:10:28.650Z,57.72
2023-05-14T02:12:57.381Z,58.20
2023-05-14T02:15:24.844Z,57.28
2023-05-14T02:17:52.255Z,57.69
2023-05-14T02:20:19.718Z,56.92
2023-05-14T02:22:47.129Z,56.53
2023-05-14T02:25:14.579Z,57.36
2023-05-14T02:27:42.109Z,55.64
2023-05-14T02:30:12.629Z,56.84
2023-05-14T02:32:40.174Z,55.33
2023-05-14T02:35:08.442Z,56.00
2023-05-14T02:37:35.890Z,55.23
2023-05-14T02:40:04.386Z,56.23
2023-05-14T02:42:32.283Z,55.64
2023-05-14T02:44:59.707Z,55.84
2023-05-14T02:47:28.471Z,55.86
2023-05-14T02:49:55.920Z,55.39
2023-05-14T02:52:23.344Z,56.67
2023-05-14T02:54:50.765Z,56.28
2023-05-14T02:57:18.200Z,57.97
2023-05-14T02:59:45.585Z,56.82
2023-05-14T03:02:13.567Z,56.28
2023-05-14T03:04:42.745Z,56.58
2023-05-14T03:07:10.180Z,56.21
2023-05-14T03:09:38.367Z,55.59
2023-05-14T03:12:06.670Z,55.60
2023-05-14T03:14:34.116Z,55.07
2023-05-14T03:17:01.702Z,54.73
2023-05-14T03:19:29.143Z,55.10
2023-05-14T03:21:57.885Z,54.67
2023-05-14T03:24:25.294Z,54.47
2023-05-14T03:26:53.287Z,54.88
2023-05-14T03:29:20.688Z,55.16
2023-05-14T03:31:48.120Z,54.83
2023-05-14T03:34:15.525Z,54.33
2023-05-14T03:36:43.030Z,54.19
2023-05-14T03:39:11.739Z,54.24
2023-05-14T03:41:39.303Z,53.98
2023-05-14T03:44:06.718Z,53.73
2023-05-14T03:46:34.135Z,54.24
2023-05-14T03:49:01.676Z,53.25
2023-05-14T03:51:29.216Z,53.35
2023-05-14T03:53:57.986Z,53.62
2023-05-14T03:56:26.981Z,54.08
2023-05-14T03:58:54.714Z,53.76
2023-05-14T04:01:22.143Z,53.72
2023-05-14T04:03:49.737Z,53.36
2023-05-14T04:06:17.220Z,53.17
2023-05-14T04:08:44.648Z,54.42
2023-05-14T04:11:12.135Z,52.97
2023-05-14T04:13:40.850Z,53.36
2023-05-14T04:16:08.430Z,52.33
2023-05-14T04:18:36.023Z,52.79
2023-05-14T04:21:03.782Z,53.15
2023-05-14T04:23:31.768Z,52.94
2023-05-14T04:25:59.289Z,53.18
2023-05-14T04:28:26.702Z,52.66
2023-05-14T04:30:55.492Z,52.56
2023-05-14T04:33:22.908Z,51.83
2023-05-14T04:35:50.307Z,51.53
2023-05-14T04:38:17.715Z,52.00
2023-05-14T04:40:45.121Z,53.19
2023-05-14T04:43:12.548Z,53.70
2023-05-14T04:45:40.935Z,53.34
2023-05-14T04:48:09.826Z,53.37
2023-05-14T04:50:37.313Z,52.87
2023-05-14T04:53:04.731Z,52.25
2023-05-14T04:55:32.362Z,52.21
2023-05-14T04:57:59.816Z,51.96
2023-05-14T05:00:27.397Z,50.46
2023-05-14T05:02:55.002Z,49.63
2023-05-14T05:05:24.601Z,49.75
2023-05-14T05:07:52.073Z,50.98
2023-05-14T05:10:19.518Z,50.10
2023-05-14T05:12:46.965Z,48.62
2023-05-14T05:15:14.382Z,48.77
2023-05-14T05:17:41.958Z,49.16
2023-05-14T05:20:10.408Z,48.14
2023-05-14T05:22:39.179Z,47.48
2023-05-14T05:25:08.081Z,48.53
2023-05-14T05:27:35.564Z,49.08
2023-05-14T05:30:03.942Z,48.54
2023-05-14T05:32:31.924Z,46.99
2023-05-14T05:34:59.433Z,45.88
2023-05-14T05:37:26.991Z,45.77
2023-05-14T05:39:55.736Z,43.46
2023-05-14T05:42:23.446Z,41.95
2023-05-14T05:44:50.824Z,41.71
2023-05-14T05:47:18.395Z,40.92
2023-05-14T05:49:45.819Z,42.53
2023-05-14T05:52:13.376Z,41.79
2023-05-14T05:54:40.805Z,43.50
2023-05-14T05:57:09.590Z,44.13
2023-05-14T05:59:37.300Z,43.70
2023-05-14T06:02:05.083Z,44.55
2023-05-14T06:04:32.588Z,44.67
2023-05-14T06:07:00.052Z,44.92
2023-05-14T06:09:27.475Z,44.53
2023-05-14T06:11:54.888Z,44.26
2023-05-14T06:14:23.678Z,44.36
2023-05-14T06:16:51.114Z,43.45
2023-05-14T06:19:18.714Z,44.85
2023-05-14T06:21:46.258Z,44.43
2023-05-14T06:24:13.963Z,44.28
2023-05-14T06:26:41.352Z,44.99
2023-05-14T06:29:08.772Z,44.76
2023-05-14T06:31:37.568Z,44.55
2023-05-14T06:34:05.026Z,45.29
2023-05-14T06:36:32.424Z,46.03
2023-05-14T06:38:59.832Z,45.63
2023-05-14T06:41:27.262Z,45.45
2023-05-14T06:43:55.238Z,45.43
2023-05-14T06:46:22.828Z,45.17
2023-05-14T06:48:51.573Z,45.71
2023-05-14T06:51:19.025Z,45.64
2023-05-14T06:53:46.776Z,46.27
2023-05-14T06:56:14.724Z,44.96
2023-05-14T06:58:42.169Z,45.44
2023-05-14T07:01:09.601Z,44.60
2023-05-14T07:03:37.105Z,45.70
2023-05-14T07:06:06.693Z,45.54
2023-05-14T07:08:34.099Z,47.18
2023-05-14T07:11:01.658Z,47.27
2023-05-14T07:13:29.090Z,46.25
2023-05-14T07:15:56.794Z,45.86
2023-05-14T07:18:24.378Z,45.72
2023-05-14T07:20:51.760Z,45.40
2023-05-14T07:23:20.575Z,46.22
2023-05-14T07:25:48.055Z,45.85
2023-05-14T07:28:17.949Z,45.38
2023-05-14T07:30:45.349Z,45.70
2023-05-14T07:33:12.747Z,45.62
2023-05-14T07:35:43.053Z,45.64
2023-05-14T07:38:10.612Z,45.85
2023-05-14T07:40:39.335Z,44.67
2023-05-14T07:43:06.755Z,44.70
2023-05-14T07:45:34.169Z,43.86
2023-05-14T07:48:01.838Z,43.37
2023-05-14T07:50:29.422Z,45.22
2023-05-14T07:52:56.838Z,43.82
2023-05-14T07:55:24.523Z,44.22
2023-05-14T07:57:53.301Z,44.03
2023-05-14T08:00:20.845Z,44.47
2023-05-14T08:02:49.135Z,47.15
2023-05-14T08:05:16.699Z,44.46
2023-05-14T08:07:44.311Z,46.07
2023-05-14T08:10:12.239Z,49.53
2023-05-14T08:12:39.870Z,49.48
2023-05-14T08:15:10.066Z,51.66
2023-05-14T08:17:37.660Z,46.40
2023-05-14T08:20:07.499Z,42.81
2023-05-14T08:22:34.974Z,43.58
2023-05-14T08:25:03.806Z,42.63
2023-05-14T08:27:31.215Z,47.24
2023-05-14T08:29:58.697Z,48.85
2023-05-14T08:32:27.587Z,43.87
2023-05-14T08:34:55.180Z,43.88
2023-05-14T08:37:22.573Z,43.28
2023-05-14T08:39:50.368Z,43.31
2023-05-14T08:42:21.882Z,43.07
2023-05-14T08:44:50.787Z,43.23
2023-05-14T08:47:22.261Z,43.95
2023-05-14T08:49:57.993Z,40.82
2023-05-14T08:52:25.520Z,43.82
2023-05-14T08:54:53.900Z,40.19
2023-05-14T08:57:24.657Z,43.21
2023-05-14T08:59:52.174Z,43.03
2023-05-14T09:02:22.978Z,41.34
2023-05-14T09:04:56.097Z,42.68
2023-05-14T09:07:23.722Z,42.85
2023-05-14T09:09:52.430Z,40.16
2023-05-14T09:12:20.221Z,41.11
2023-05-14T09:14:49.359Z,41.86
2023-05-14T09:17:17.133Z,39.88
2023-05-14T09:19:47.199Z,39.76
2023-05-14T09:22:17.937Z,39.93
2023-05-14T09:24:45.515Z,42.13
2023-05-14T09:27:20.463Z,41.10
2023-05-14T09:29:48.814Z,39.99
2023-05-14T09:32:16.215Z,41.88
2023-05-14T09:34:43.663Z,41.65
2023-05-14T09:37:11.120Z,42.01
2023-05-14T09:39:40.031Z,41.42
2023-05-14T09:42:08.330Z,40.55
2023-05-14T09:44:38.028Z,40.98
2023-05-14T09:47:06.035Z,41.07
2023-05-14T09:49:33.494Z,40.33
2023-05-14T09:52:03.549Z,40.73
2023-05-14T09:54:32.884Z,39.66
2023-05-14T09:57:01.827Z,40.45
2023-05-14T09:59:29.328Z,40.66
2023-05-14T10:01:58.371Z,39.44
2023-05-14T10:04:26.219Z,40.97
2023-05-14T10:06:55.054Z,39.99
2023-05-14T10:09:26.317Z,40.83
2023-05-14T10:11:57.345Z,41.92
2023-05-14T10:14:29.526Z,41.86
2023-05-14T10:16:59.836Z,41.68
2023-05-14T10:19:27.696Z,41.55
2023-05-14T10:22:00.762Z,42.48
2023-05-14T10:24:28.702Z,42.11
2023-05-14T10:26:58.688Z,41.71
2023-05-14T10:29:35.226Z,42.65
2023-05-14T10:32:06.023Z,43.68
2023-05-14T10:34:42.568Z,43.88
2023-05-14T10:37:12.026Z,42.83
2023-05-14T10:39:47.937Z,42.40
2023-05-14T10:42:18.782Z,42.99
2023-05-14T10:44:51.600Z,42.61
2023-05-14T10:47:19.822Z,42.06
2023-05-14T10:49:51.952Z,42.21
2023-05-14T10:52:20.717Z,40.82
2023-05-14T10:54:52.705Z,41.31
2023-05-14T10:57:21.103Z,42.45
2023-05-14T10:59:53.157Z,41.96
2023-05-14T11:02:23.226Z,41.22
2023-05-14T11:04:58.445Z,41.60
2023-05-14T11:07:29.765Z,40.60
2023-05-14T11:10:04.504Z,40.21
2023-05-14T11:12:32.842Z,40.61
2023-05-14T11:15:03.839Z,40.39
2023-05-14T11:17:32.461Z,39.81
2023-05-14T11:20:00.625Z,40.26
2023-05-14T11:22:28.275Z,40.34
2023-05-14T11:24:55.742Z,40.39
2023-05-14T11:27:24.010Z,40.17
2023-05-14T11:29:51.982Z,41.78
2023-05-14T11:32:21.208Z,40.84
2023-05-14T11:34:49.112Z,40.56
2023-05-14T11:37:17.921Z,40.54
2023-05-14T11:39:48.568Z,39.88
2023-05-14T11:42:18.491Z,39.64
2023-05-14T11:44:48.854Z,41.80
2023-05-14T11:47:18.272Z,39.84
2023-05-14T11:49:47.860Z,39.83
2023-05-14T11:52:19.102Z,39.56
2023-05-14T11:54:46.582Z,41.20
2023-05-14T11:57:14.923Z,40.90
2023-05-14T11:59:42.491Z,41.63
2023-05-14T12:02:11.638Z,40.88
2023-05-14T12:04:39.696Z,41.32
2023-05-14T12:07:13.561Z,41.00
2023-05-14T12:09:45.155Z,41.39
2023-05-14T12:12:13.626Z,41.70
2023-05-14T12:14:42.792Z,41.44
2023-05-14T12:17:15.976Z,40.98
2023-05-14T12:19:44.374Z,41.61
2023-05-14T12:22:17.083Z,42.06
2023-05-14T12:24:45.279Z,42.21
2023-05-14T12:27:12.946Z,41.34
2023-05-14T12:29:40.453Z,40.76
2023-05-14T12:32:11.111Z,42.15
2023-05-14T12:34:38.943Z,41.40
2023-05-14T12:37:06.592Z,41.29
2023-05-14T12:39:35.718Z,40.77
2023-05-14T12:42:03.454Z,40.80
2023-05-14T12:44:31.278Z,41.17
2023-05-14T12:46:58.867Z,40.05
2023-05-14T12:49:26.447Z,41.53
2023-05-14T12:52:07.772Z,41.07
2023-05-14T12:54:43.675Z,40.51
2023-05-14T12:57:11.293Z,41.65
2023-05-14T12:59:39.448Z,40.96
2023-05-14T13:02:07.877Z,39.87
2023-05-14T13:04:35.423Z,38.65
2023-05-14T13:07:02.989Z,39.09
2023-05-14T13:09:30.401Z,38.76
2023-05-14T13:11:59.234Z,39.23
2023-05-14T13:14:28.069Z,38.86
2023-05-14T13:16:55.614Z,38.36
2023-05-14T13:19:23.089Z,38.14
2023-05-14T13:21:50.469Z,39.04
2023-05-14T13:24:18.027Z,39.23
2023-05-14T13:26:45.490Z,39.36
2023-05-14T13:29:14.474Z,39.45
2023-05-14T13:31:41.865Z,38.27
2023-05-14T13:34:10.232Z,38.51
2023-05-14T13:36:39.568Z,37.55
2023-05-14T13:39:07.100Z,38.09
2023-05-14T13:41:35.707Z,38.00
2023-05-14T13:44:03.109Z,37.96
2023-05-14T13:46:31.951Z,37.89
2023-05-14T13:48:59.450Z,37.91
2023-05-14T13:51:26.946Z,37.91
2023-05-14T13:56:26.903Z,39.37
2023-05-14T13:58:54.343Z,39.59
2023-05-14T14:01:23.278Z,37.99
2023-05-14T14:03:52.720Z,37.53
2023-05-14T14:06:20.787Z,37.66
2023-05-14T14:08:48.235Z,37.57
2023-05-14T14:11:16.800Z,37.68
2023-05-14T14:13:46.442Z,37.63
2023-05-14T14:16:14.282Z,37.52
2023-05-14T14:18:43.162Z,38.87
2023-05-14T14:21:12.415Z,38.78
2023-05-14T14:23:39.810Z,39.48
2023-05-14T14:26:07.262Z,38.44
2023-05-14T14:28:34.652Z,39.05
2023-05-14T14:31:03.036Z,37.57
2023-05-14T14:33:30.450Z,38.16
2023-05-14T14:35:57.865Z,38.47
2023-05-14T14:38:26.760Z,38.44
2023-05-14T14:40:54.229Z,37.99
2023-05-14T14:43:24.712Z,38.91
2023-05-14T14:45:52.246Z,39.74
2023-05-14T14:48:24.299Z,39.80
2023-05-14T14:50:51.937Z,39.08
2023-05-14T14:53:19.464Z,38.60
2023-05-14T14:55:48.505Z,38.74
2023-05-14T14:58:16.111Z,38.50
2023-05-14T15:00:45.591Z,38.28
2023-05-14T15:03:14.990Z,38.83
2023-05-14T15:05:42.740Z,37.63
2023-05-14T15:08:10.413Z,38.17
2023-05-14T15:10:38.563Z,37.18
2023-05-14T15:13:07.758Z,38.57
2023-05-14T15:15:36.471Z,38.76
2023-05-14T15:18:05.223Z,38.21
2023-05-14T15:20:35.775Z,38.68
2023-05-14T15:23:03.650Z,39.24
2023-05-14T15:25:31.138Z,39.34
2023-05-14T15:27:58.598Z,39.14
2023-05-14T15:30:27.338Z,38.36
2023-05-14T15:32:54.871Z,38.88
2023-05-14T15:35:22.719Z,39.70
2023-05-14T15:37:50.494Z,39.86
2023-05-14T15:40:18.038Z,39.44
2023-05-14T15:42:46.936Z,38.70
2023-05-14T15:45:14.862Z,39.65
2023-05-14T15:47:44.979Z,38.73
2023-05-14T15:50:12.634Z,38.81
2023-05-14T15:52:41.523Z,38.95
2023-05-14T15:55:09.824Z,38.95
2023-05-14T15:57:39.765Z,40.06
2023-05-14T16:00:10.801Z,39.63
2023-05-14T16:02:41.344Z,39.32
2023-05-14T16:05:10.736Z,38.96
2023-05-14T16:07:38.456Z,39.16
2023-05-14T16:10:07.103Z,39.17
2023-05-14T16:12:34.778Z,40.29
2023-05-14T16:15:02.205Z,39.42
2023-05-14T16:17:31.484Z,39.53
2023-05-14T16:19:59.904Z,39.57
2023-05-14T16:22:29.279Z,40.73
2023-05-14T16:24:56.799Z,40.34
2023-05-14T16:27:24.272Z,39.90
2023-05-14T16:29:51.711Z,39.79
2023-05-14T16:32:19.336Z,39.45
2023-05-14T16:34:49.812Z,38.96
2023-05-14T16:37:17.327Z,39.43
2023-05-14T16:39:46.144Z,39.78
2023-05-14T16:42:13.597Z,40.21
2023-05-14T16:44:41.130Z,39.98
2023-05-14T16:47:08.519Z,40.28
2023-05-14T16:49:36.012Z,41.21
2023-05-14T16:52:03.413Z,40.62
2023-05-14T16:54:30.873Z,40.80
2023-05-14T16:56:59.644Z,41.37
2023-05-14T16:59:27.095Z,41.01
2023-05-14T17:01:54.570Z,40.27
2023-05-14T17:04:22.758Z,39.76
2023-05-14T17:06:50.219Z,39.96
2023-05-14T17:09:17.938Z,40.58
2023-05-14T17:11:45.541Z,41.86
2023-05-14T17:14:14.286Z,41.54
2023-05-14T17:16:42.356Z,41.79
2023-05-14T17:19:09.962Z,41.38
2023-05-14T17:21:37.444Z,42.05
2023-05-14T17:24:05.205Z,43.14
2023-05-14T17:26:32.726Z,42.97
2023-05-14T17:29:00.138Z,43.40
2023-05-14T17:31:29.281Z,42.97
2023-05-14T17:33:56.774Z,42.38
2023-05-14T17:36:24.466Z,43.65
2023-05-14T17:38:52.419Z,44.84
2023-05-14T17:41:19.901Z,44.22
2023-05-14T17:43:47.387Z,43.59
2023-05-14T17:46:14.901Z,44.32
2023-05-14T17:48:43.737Z,43.29
2023-05-14T17:51:11.213Z,43.20
2023-05-14T17:53:38.715Z,42.90
2023-05-14T17:56:06.417Z,42.31
2023-05-14T17:58:33.880Z,44.30
2023-05-14T18:01:01.363Z,42.60
2023-05-14T18:03:28.802Z,45.03
2023-05-14T18:05:57.560Z,42.71
2023-05-14T18:08:24.971Z,42.94
2023-05-14T18:10:52.417Z,43.88
2023-05-14T18:13:19.895Z,43.48
2023-05-14T18:15:47.400Z,42.13
2023-05-14T18:18:17.061Z,42.90
2023-05-14T18:20:44.513Z,43.29
2023-05-14T18:23:13.349Z,43.51
2023-05-14T18:25:40.780Z,43.31
2023-05-14T18:28:08.331Z,43.35
2023-05-14T18:30:35.987Z,43.11
2023-05-14T18:33:03.686Z,43.12
2023-05-14T18:35:31.547Z,43.53
2023-05-14T18:37:58.989Z,43.06
2023-05-14T18:40:27.713Z,43.83
2023-05-14T18:42:56.626Z,43.66
2023-05-14T18:45:25.013Z,44.56
2023-05-14T18:47:52.987Z,43.70
2023-05-14T18:50:20.505Z,43.72
2023-05-14T18:52:47.944Z,44.12
2023-05-14T18:55:15.379Z,43.46
2023-05-14T18:57:44.128Z,43.79
2023-05-14T19:00:13.100Z,44.63
2023-05-14T19:02:40.653Z,43.43
2023-05-14T19:05:09.115Z,44.13
2023-05-14T19:07:37.739Z,43.72
2023-05-14T19:10:06.111Z,43.81
2023-05-14T19:12:33.913Z,44.47
2023-05-14T19:15:02.708Z,43.63
2023-05-14T19:17:35.507Z,43.89
2023-05-14T19:20:06.045Z,44.41
2023-05-14T19:22:33.465Z,44.09
2023-05-14T19:25:01.355Z,44.88
2023-05-14T19:27:29.090Z,44.26
2023-05-14T19:29:56.924Z,44.51
2023-05-14T19:32:25.714Z,44.98
2023-05-14T19:34:53.120Z,45.38
2023-05-14T19:37:21.266Z,45.93
2023-05-14T19:39:49.736Z,45.59
2023-05-14T19:42:17.200Z,45.45
2023-05-14T19:44:44.646Z,46.14
2023-05-14T19:47:12.251Z,45.83
2023-05-14T19:49:41.162Z,46.76
2023-05-14T19:52:08.609Z,46.84
2023-05-14T19:54:36.164Z,47.04
2023-05-14T19:57:03.737Z,47.02
2023-05-14T19:59:31.554Z,47.22
2023-05-14T20:01:59.075Z,47.43
2023-05-14T20:04:26.652Z,47.69
2023-05-14T20:06:55.438Z,47.89
2023-05-14T20:09:22.877Z,48.23
2023-05-14T20:11:50.441Z,47.97
2023-05-14T20:14:18.042Z,48.27
2023-05-14T20:16:46.955Z,48.62
2023-05-14T20:19:14.657Z,48.91
2023-05-14T20:21:42.202Z,48.92
2023-05-14T20:24:11.093Z,49.84
2023-05-14T20:26:38.549Z,49.79
2023-05-14T20:29:06.120Z,49.40
2023-05-14T20:31:33.563Z,49.30
2023-05-14T20:34:01.043Z,49.42
2023-05-14T20:36:29.680Z,49.30
2023-05-14T20:38:57.509Z,49.68
2023-05-14T20:41:26.300Z,50.49
2023-05-14T20:43:53.735Z,50.69
2023-05-14T20:46:21.249Z,51.37
2023-05-14T20:48:48.881Z,52.06
2023-05-14T20:51:16.319Z,53.02
2023-05-14T20:53:43.718Z,52.93
2023-05-14T20:56:11.200Z,53.72
2023-05-14T20:58:39.969Z,53.71
2023-05-14T21:01:08.019Z,53.55
2023-05-14T21:03:35.657Z,54.13
2023-05-14T21:06:03.614Z,53.81
2023-05-14T21:08:32.783Z,53.05
2023-05-14T21:11:00.258Z,53.57
2023-05-14T21:13:27.706Z,53.56
2023-05-14T21:15:56.540Z,53.77
2023-05-14T21:18:26.605Z,53.32
2023-05-14T21:20:54.415Z,53.28
2023-05-14T21:23:21.840Z,54.36
2023-05-14T21:25:49.357Z,54.16
2023-05-14T21:28:16.829Z,54.18
2023-05-14T21:30:44.254Z,54.95
2023-05-14T21:33:13.134Z,54.35
2023-05-14T21:35:40.683Z,54.00
2023-05-14T21:38:08.824Z,54.38
2023-05-14T21:40:36.503Z,54.97
2023-05-14T21:43:04.226Z,54.33
2023-05-14T21:45:31.696Z,54.61
2023-05-14T21:47:59.437Z,54.40
2023-05-14T21:50:28.488Z,56.73
2023-05-14T21:52:55.919Z,56.60
2023-05-14T21:55:24.846Z,56.55
2023-05-14T21:57:53.139Z,55.93
2023-05-14T22:00:23.447Z,55.14
2023-05-14T22:02:51.756Z,54.82
2023-05-14T22:05:19.540Z,54.91
2023-05-14T22:07:48.642Z,54.74
2023-05-14T22:10:17.071Z,56.16
2023-05-14T22:12:45.380Z,55.91
2023-05-14T22:15:13.887Z,56.18
2023-05-14T22:17:41.756Z,56.18
2023-05-14T22:20:10.497Z,56.04
2023-05-14T22:22:37.981Z,57.41
2023-05-14T22:25:07.607Z,57.24
2023-05-14T22:27:35.137Z,57.28
2023-05-14T22:30:02.598Z,56.66
2023-05-14T22:32:30.142Z,57.51
2023-05-14T22:34:57.723Z,56.42
2023-05-14T22:37:25.165Z,56.73
2023-05-14T22:39:52.632Z,57.61
2023-05-14T22:42:21.586Z,57.70
2023-05-14T22:44:49.106Z,56.82
2023-05-14T22:47:17.052Z,57.64
2023-05-14T22:49:44.527Z,57.79
2023-05-14T22:52:11.946Z,58.31
2023-05-14T22:54:39.478Z,58.14
2023-05-14T22:57:07.161Z,58.84
2023-05-14T22:59:36.066Z,57.94
2023-05-14T23:02:03.766Z,57.88
2023-05-14T23:04:31.531Z,58.43
2023-05-14T23:06:59.284Z,59.02
2023-05-14T23:09:26.711Z,60.36
2023-05-14T23:11:54.145Z,59.73
2023-05-14T23:14:21.566Z,59.30
2023-05-14T23:16:50.465Z,59.10
2023-05-14T23:19:18.086Z,59.07
2023-05-14T23:21:45.703Z,58.90
2023-05-14T23:24:13.154Z,59.40
2023-05-14T23:26:40.693Z,59.57
2023-05-14T23:29:08.156Z,59.99
2023-05-14T23:31:35.780Z,60.12
2023-05-14T23:34:04.587Z,60.29
2023-05-14T23:36:32.469Z,60.78
2023-05-14T23:39:00.606Z,60.84
2023-05-14T23:41:28.061Z,62.42
2023-05-14T23:43:56.077Z,61.93
2023-05-14T23:46:24.008Z,62.84
2023-05-14T23:48:52.224Z,63.32
2023-05-14T23:51:20.973Z,63.14
2023-05-14T23:53:48.355Z,62.90
2023-05-14T23:56:15.854Z,63.67
2023-05-14T23:58:43.396Z,64.50
